sensor_id;sensor_type;location;lat;lon;timestamp;P1;durP1;ratioP1;P2;durP2;ratioP2
55053;SDS011;40954;45.668;18.980;2022-12-18T00:00:02;41.63;;;26.50;;
55053;SDS011;40954;45.668;18.980;2022-12-18T00:02:28;41.20;;;25.63;;
55053;SDS011;40954;45.668;18.980;2022-12-18T00:04:54;43.72;;;24.88;;
55053;SDS011;40954;45.668;18.980;2022-12-18T00:07:20;43.92;;;25.00;;
55053;SDS011;40954;45.668;18.980;2022-12-18T00:09:46;36.83;;;23.02;;
55053;SDS011;40954;45.668;18.980;2022-12-18T00:12:13;43.58;;;25.30;;
55053;SDS011;40954;45.668;18.980;2022-12-18T00:14:39;45.83;;;27.02;;
55053;SDS011;40954;45.668;18.980;2022-12-18T00:17:05;44.92;;;25.73;;
55053;SDS011;40954;45.668;18.980;2022-12-18T00:19:31;40.40;;;23.27;;
55053;SDS011;40954;45.668;18.980;2022-12-18T00:21:57;47.00;;;27.00;;
55053;SDS011;40954;45.668;18.980;2022-12-18T00:24:23;45.38;;;23.73;;
55053;SDS011;40954;45.668;18.980;2022-12-18T00:26:49;43.17;;;24.30;;
55053;SDS011;40954;45.668;18.980;2022-12-18T00:29:15;42.75;;;24.48;;
55053;SDS011;40954;45.668;18.980;2022-12-18T00:31:42;43.20;;;24.63;;
55053;SDS011;40954;45.668;18.980;2022-12-18T00:34:09;37.83;;;22.98;;
55053;SDS011;40954;45.668;18.980;2022-12-18T00:36:36;42.05;;;23.08;;
55053;SDS011;40954;45.668;18.980;2022-12-18T00:39:03;42.95;;;25.10;;
55053;SDS011;40954;45.668;18.980;2022-12-18T00:41:29;41.63;;;24.13;;
55053;SDS011;40954;45.668;18.980;2022-12-18T00:44:15;37.28;;;22.50;;
55053;SDS011;40954;45.668;18.980;2022-12-18T00:46:42;40.05;;;23.80;;
55053;SDS011;40954;45.668;18.980;2022-12-18T00:49:08;46.58;;;25.40;;
55053;SDS011;40954;45.668;18.980;2022-12-18T00:51:34;48.70;;;25.80;;
55053;SDS011;40954;45.668;18.980;2022-12-18T00:54:01;43.70;;;24.45;;
55053;SDS011;40954;45.668;18.980;2022-12-18T00:56:27;44.03;;;23.73;;
55053;SDS011;40954;45.668;18.980;2022-12-18T00:58:53;44.85;;;24.38;;
55053;SDS011;40954;45.668;18.980;2022-12-18T01:01:19;45.20;;;25.65;;
55053;SDS011;40954;45.668;18.980;2022-12-18T01:03:45;41.60;;;23.63;;
55053;SDS011;40954;45.668;18.980;2022-12-18T01:06:12;42.92;;;24.38;;
55053;SDS011;40954;45.668;18.980;2022-12-18T01:08:38;42.55;;;24.20;;
55053;SDS011;40954;45.668;18.980;2022-12-18T01:11:11;42.38;;;23.55;;
55053;SDS011;40954;45.668;18.980;2022-12-18T01:13:38;40.70;;;23.25;;
55053;SDS011;40954;45.668;18.980;2022-12-18T01:16:04;40.78;;;24.13;;
55053;SDS011;40954;45.668;18.980;2022-12-18T01:18:30;44.80;;;26.05;;
55053;SDS011;40954;45.668;18.980;2022-12-18T01:20:57;45.88;;;25.00;;
55053;SDS011;40954;45.668;18.980;2022-12-18T01:23:23;42.00;;;25.13;;
55053;SDS011;40954;45.668;18.980;2022-12-18T01:25:49;43.55;;;24.90;;
55053;SDS011;40954;45.668;18.980;2022-12-18T01:28:15;44.40;;;25.20;;
55053;SDS011;40954;45.668;18.980;2022-12-18T01:30:41;48.65;;;27.45;;
55053;SDS011;40954;45.668;18.980;2022-12-18T01:33:07;42.90;;;24.42;;
55053;SDS011;40954;45.668;18.980;2022-12-18T01:35:33;47.00;;;26.88;;
55053;SDS011;40954;45.668;18.980;2022-12-18T01:38:05;46.95;;;26.33;;
55053;SDS011;40954;45.668;18.980;2022-12-18T01:40:31;48.53;;;26.50;;
55053;SDS011;40954;45.668;18.980;2022-12-18T01:42:57;46.20;;;25.48;;
55053;SDS011;40954;45.668;18.980;2022-12-18T01:45:27;46.60;;;26.83;;
55053;SDS011;40954;45.668;18.980;2022-12-18T01:47:55;47.38;;;26.20;;
55053;SDS011;40954;45.668;18.980;2022-12-18T01:50:25;44.80;;;25.67;;
55053;SDS011;40954;45.668;18.980;2022-12-18T01:55:26;45.00;;;25.33;;
55053;SDS011;40954;45.668;18.980;2022-12-18T01:57:54;45.33;;;25.52;;
55053;SDS011;40954;45.668;18.980;2022-12-18T02:00:21;47.63;;;26.33;;
55053;SDS011;40954;45.668;18.980;2022-12-18T02:02:47;47.35;;;26.83;;
55053;SDS011;40954;45.668;18.980;2022-12-18T02:05:15;46.00;;;25.73;;
55053;SDS011;40954;45.668;18.980;2022-12-18T02:10:24;42.72;;;25.33;;
55053;SDS011;40954;45.668;18.980;2022-12-18T02:12:56;48.10;;;26.13;;
55053;SDS011;40954;45.668;18.980;2022-12-18T02:17:58;43.88;;;24.67;;
55053;SDS011;40954;45.668;18.980;2022-12-18T02:20:32;46.17;;;25.35;;
55053;SDS011;40954;45.668;18.980;2022-12-18T02:23:04;46.80;;;25.05;;
55053;SDS011;40954;45.668;18.980;2022-12-18T02:25:40;46.53;;;25.00;;
55053;SDS011;40954;45.668;18.980;2022-12-18T02:28:09;42.38;;;24.55;;
55053;SDS011;40954;45.668;18.980;2022-12-18T02:30:37;45.30;;;26.42;;
55053;SDS011;40954;45.668;18.980;2022-12-18T02:33:05;47.15;;;27.40;;
55053;SDS011;40954;45.668;18.980;2022-12-18T02:35:32;45.65;;;26.30;;
55053;SDS011;40954;45.668;18.980;2022-12-18T02:37:58;46.55;;;27.58;;
55053;SDS011;40954;45.668;18.980;2022-12-18T02:40:26;46.47;;;25.52;;
55053;SDS011;40954;45.668;18.980;2022-12-18T02:42:53;45.90;;;24.95;;
55053;SDS011;40954;45.668;18.980;2022-12-18T02:45:19;47.42;;;26.90;;
55053;SDS011;40954;45.668;18.980;2022-12-18T02:47:46;51.20;;;27.60;;
55053;SDS011;40954;45.668;18.980;2022-12-18T02:50:26;51.58;;;26.92;;
55053;SDS011;40954;45.668;18.980;2022-12-18T02:52:56;51.38;;;27.35;;
55053;SDS011;40954;45.668;18.980;2022-12-18T02:58:06;48.95;;;27.25;;
55053;SDS011;40954;45.668;18.980;2022-12-18T03:00:39;46.60;;;26.48;;
55053;SDS011;40954;45.668;18.980;2022-12-18T03:03:11;48.30;;;25.52;;
55053;SDS011;40954;45.668;18.980;2022-12-18T03:05:41;51.78;;;27.15;;
55053;SDS011;40954;45.668;18.980;2022-12-18T03:08:13;46.35;;;26.52;;
55053;SDS011;40954;45.668;18.980;2022-12-18T03:10:45;56.17;;;28.50;;
55053;SDS011;40954;45.668;18.980;2022-12-18T03:13:14;49.55;;;27.15;;
55053;SDS011;40954;45.668;18.980;2022-12-18T03:15:44;46.72;;;26.35;;
55053;SDS011;40954;45.668;18.980;2022-12-18T03:18:22;51.92;;;28.13;;
55053;SDS011;40954;45.668;18.980;2022-12-18T03:20:49;53.58;;;29.60;;
55053;SDS011;40954;45.668;18.980;2022-12-18T03:23:17;50.58;;;27.63;;
55053;SDS011;40954;45.668;18.980;2022-12-18T03:25:44;51.30;;;26.70;;
55053;SDS011;40954;45.668;18.980;2022-12-18T03:28:14;48.97;;;27.27;;
55053;SDS011;40954;45.668;18.980;2022-12-18T03:30:42;53.00;;;28.38;;
55053;SDS011;40954;45.668;18.980;2022-12-18T03:33:15;49.40;;;27.42;;
55053;SDS011;40954;45.668;18.980;2022-12-18T03:35:44;54.53;;;28.98;;
55053;SDS011;40954;45.668;18.980;2022-12-18T03:38:11;47.00;;;27.25;;
55053;SDS011;40954;45.668;18.980;2022-12-18T03:40:41;54.33;;;28.63;;
55053;SDS011;40954;45.668;18.980;2022-12-18T03:43:10;52.27;;;29.40;;
55053;SDS011;40954;45.668;18.980;2022-12-18T03:45:41;59.35;;;30.95;;
55053;SDS011;40954;45.668;18.980;2022-12-18T03:50:53;48.85;;;29.17;;
55053;SDS011;40954;45.668;18.980;2022-12-18T03:55:50;54.10;;;29.70;;
55053;SDS011;40954;45.668;18.980;2022-12-18T03:58:18;56.78;;;29.63;;
55053;SDS011;40954;45.668;18.980;2022-12-18T04:00:45;52.35;;;30.08;;
55053;SDS011;40954;45.668;18.980;2022-12-18T04:03:12;52.63;;;27.52;;
55053;SDS011;40954;45.668;18.980;2022-12-18T04:05:39;55.78;;;29.60;;
55053;SDS011;40954;45.668;18.980;2022-12-18T04:08:06;47.95;;;28.05;;
55053;SDS011;40954;45.668;18.980;2022-12-18T04:10:32;53.10;;;28.05;;
55053;SDS011;40954;45.668;18.980;2022-12-18T04:12:58;51.97;;;29.30;;
55053;SDS011;40954;45.668;18.980;2022-12-18T04:15:24;52.45;;;29.30;;
55053;SDS011;40954;45.668;18.980;2022-12-18T04:17:50;51.17;;;28.67;;
55053;SDS011;40954;45.668;18.980;2022-12-18T04:20:16;56.03;;;29.75;;
55053;SDS011;40954;45.668;18.980;2022-12-18T04:22:42;53.20;;;28.42;;
55053;SDS011;40954;45.668;18.980;2022-12-18T04:25:08;52.20;;;29.45;;
55053;SDS011;40954;45.668;18.980;2022-12-18T04:27:34;52.50;;;27.40;;
55053;SDS011;40954;45.668;18.980;2022-12-18T04:30:01;58.15;;;28.90;;
55053;SDS011;40954;45.668;18.980;2022-12-18T04:32:27;56.63;;;28.65;;
55053;SDS011;40954;45.668;18.980;2022-12-18T04:34:53;48.75;;;27.38;;
55053;SDS011;40954;45.668;18.980;2022-12-18T04:37:19;50.72;;;26.27;;
55053;SDS011;40954;45.668;18.980;2022-12-18T04:39:45;50.17;;;27.02;;
55053;SDS011;40954;45.668;18.980;2022-12-18T04:42:12;48.47;;;27.75;;
55053;SDS011;40954;45.668;18.980;2022-12-18T04:44:38;47.15;;;26.48;;
55053;SDS011;40954;45.668;18.980;2022-12-18T04:47:04;47.95;;;27.45;;
55053;SDS011;40954;45.668;18.980;2022-12-18T04:49:30;48.40;;;27.13;;
55053;SDS011;40954;45.668;18.980;2022-12-18T04:51:56;50.28;;;28.08;;
55053;SDS011;40954;45.668;18.980;2022-12-18T04:54:22;50.13;;;27.67;;
55053;SDS011;40954;45.668;18.980;2022-12-18T04:56:48;46.70;;;28.02;;
55053;SDS011;40954;45.668;18.980;2022-12-18T04:59:14;49.30;;;26.77;;
55053;SDS011;40954;45.668;18.980;2022-12-18T05:01:40;49.67;;;26.77;;
55053;SDS011;40954;45.668;18.980;2022-12-18T05:04:06;50.88;;;27.80;;
55053;SDS011;40954;45.668;18.980;2022-12-18T05:06:32;48.70;;;26.90;;
55053;SDS011;40954;45.668;18.980;2022-12-18T05:08:58;52.22;;;28.73;;
55053;SDS011;40954;45.668;18.980;2022-12-18T05:11:24;47.72;;;27.95;;
55053;SDS011;40954;45.668;18.980;2022-12-18T05:13:50;47.95;;;26.85;;
55053;SDS011;40954;45.668;18.980;2022-12-18T05:16:16;52.92;;;28.90;;
55053;SDS011;40954;45.668;18.980;2022-12-18T05:18:42;49.97;;;28.45;;
55053;SDS011;40954;45.668;18.980;2022-12-18T05:21:08;54.85;;;28.48;;
55053;SDS011;40954;45.668;18.980;2022-12-18T05:23:35;52.35;;;27.77;;
55053;SDS011;40954;45.668;18.980;2022-12-18T05:26:02;49.10;;;27.20;;
55053;SDS011;40954;45.668;18.980;2022-12-18T05:28:29;49.38;;;26.88;;
55053;SDS011;40954;45.668;18.980;2022-12-18T05:30:56;49.80;;;27.08;;
55053;SDS011;40954;45.668;18.980;2022-12-18T05:33:24;53.65;;;27.33;;
55053;SDS011;40954;45.668;18.980;2022-12-18T05:35:54;53.53;;;28.15;;
55053;SDS011;40954;45.668;18.980;2022-12-18T05:38:21;50.53;;;27.42;;
55053;SDS011;40954;45.668;18.980;2022-12-18T05:40:48;49.03;;;26.80;;
55053;SDS011;40954;45.668;18.980;2022-12-18T05:43:14;52.40;;;28.33;;
55053;SDS011;40954;45.668;18.980;2022-12-18T05:45:40;49.10;;;27.42;;
55053;SDS011;40954;45.668;18.980;2022-12-18T05:48:07;53.30;;;28.20;;
55053;SDS011;40954;45.668;18.980;2022-12-18T05:50:36;52.63;;;29.65;;
55053;SDS011;40954;45.668;18.980;2022-12-18T05:53:03;49.40;;;27.02;;
55053;SDS011;40954;45.668;18.980;2022-12-18T05:55:32;51.90;;;27.45;;
55053;SDS011;40954;45.668;18.980;2022-12-18T05:57:59;50.78;;;27.20;;
55053;SDS011;40954;45.668;18.980;2022-12-18T06:00:25;47.58;;;28.52;;
55053;SDS011;40954;45.668;18.980;2022-12-18T06:02:51;50.80;;;26.90;;
55053;SDS011;40954;45.668;18.980;2022-12-18T06:05:17;49.33;;;26.98;;
55053;SDS011;40954;45.668;18.980;2022-12-18T06:07:43;47.10;;;26.63;;
55053;SDS011;40954;45.668;18.980;2022-12-18T06:10:09;49.28;;;27.77;;
55053;SDS011;40954;45.668;18.980;2022-12-18T06:12:36;47.65;;;27.15;;
55053;SDS011;40954;45.668;18.980;2022-12-18T06:15:02;49.95;;;26.90;;
55053;SDS011;40954;45.668;18.980;2022-12-18T06:17:29;54.08;;;26.73;;
55053;SDS011;40954;45.668;18.980;2022-12-18T06:19:55;45.70;;;26.77;;
55053;SDS011;40954;45.668;18.980;2022-12-18T06:22:21;49.53;;;26.85;;
55053;SDS011;40954;45.668;18.980;2022-12-18T06:24:47;48.35;;;28.02;;
55053;SDS011;40954;45.668;18.980;2022-12-18T06:27:14;49.63;;;27.33;;
55053;SDS011;40954;45.668;18.980;2022-12-18T06:29:47;54.80;;;28.45;;
55053;SDS011;40954;45.668;18.980;2022-12-18T06:32:13;51.78;;;27.58;;
55053;SDS011;40954;45.668;18.980;2022-12-18T06:34:39;52.95;;;29.45;;
55053;SDS011;40954;45.668;18.980;2022-12-18T06:37:06;55.13;;;29.52;;
55053;SDS011;40954;45.668;18.980;2022-12-18T06:39:32;51.03;;;26.70;;
55053;SDS011;40954;45.668;18.980;2022-12-18T06:41:58;55.03;;;28.98;;
55053;SDS011;40954;45.668;18.980;2022-12-18T06:44:24;47.95;;;27.02;;
55053;SDS011;40954;45.668;18.980;2022-12-18T06:46:50;46.03;;;27.27;;
55053;SDS011;40954;45.668;18.980;2022-12-18T06:49:16;49.95;;;27.85;;
55053;SDS011;40954;45.668;18.980;2022-12-18T06:51:42;47.22;;;28.52;;
55053;SDS011;40954;45.668;18.980;2022-12-18T06:54:08;46.10;;;27.50;;
55053;SDS011;40954;45.668;18.980;2022-12-18T06:56:34;49.92;;;28.05;;
55053;SDS011;40954;45.668;18.980;2022-12-18T06:59:00;47.35;;;27.55;;
55053;SDS011;40954;45.668;18.980;2022-12-18T07:01:26;49.17;;;27.02;;
55053;SDS011;40954;45.668;18.980;2022-12-18T07:03:53;47.03;;;28.08;;
55053;SDS011;40954;45.668;18.980;2022-12-18T07:06:20;49.42;;;27.85;;
55053;SDS011;40954;45.668;18.980;2022-12-18T07:08:47;51.50;;;28.45;;
55053;SDS011;40954;45.668;18.980;2022-12-18T07:11:13;45.60;;;26.77;;
55053;SDS011;40954;45.668;18.980;2022-12-18T07:13:39;47.17;;;28.20;;
55053;SDS011;40954;45.668;18.980;2022-12-18T07:16:09;45.85;;;27.42;;
55053;SDS011;40954;45.668;18.980;2022-12-18T07:18:35;52.10;;;27.77;;
55053;SDS011;40954;45.668;18.980;2022-12-18T07:21:02;47.53;;;26.98;;
55053;SDS011;40954;45.668;18.980;2022-12-18T07:23:29;50.80;;;26.95;;
55053;SDS011;40954;45.668;18.980;2022-12-18T07:25:59;52.17;;;27.75;;
55053;SDS011;40954;45.668;18.980;2022-12-18T07:28:26;50.40;;;28.40;;
55053;SDS011;40954;45.668;18.980;2022-12-18T07:30:52;52.90;;;28.25;;
55053;SDS011;40954;45.668;18.980;2022-12-18T07:33:18;52.08;;;28.65;;
55053;SDS011;40954;45.668;18.980;2022-12-18T07:35:44;51.58;;;30.17;;
55053;SDS011;40954;45.668;18.980;2022-12-18T07:38:10;47.22;;;26.90;;
55053;SDS011;40954;45.668;18.980;2022-12-18T07:40:36;46.03;;;27.13;;
55053;SDS011;40954;45.668;18.980;2022-12-18T07:43:02;44.85;;;25.17;;
55053;SDS011;40954;45.668;18.980;2022-12-18T07:45:28;51.03;;;27.13;;
55053;SDS011;40954;45.668;18.980;2022-12-18T07:47:54;54.42;;;28.55;;
55053;SDS011;40954;45.668;18.980;2022-12-18T07:50:20;51.10;;;28.45;;
55053;SDS011;40954;45.668;18.980;2022-12-18T07:52:46;47.60;;;25.48;;
55053;SDS011;40954;45.668;18.980;2022-12-18T07:55:13;46.90;;;27.10;;
55053;SDS011;40954;45.668;18.980;2022-12-18T07:57:39;49.63;;;27.52;;
55053;SDS011;40954;45.668;18.980;2022-12-18T08:00:05;43.13;;;24.38;;
55053;SDS011;40954;45.668;18.980;2022-12-18T08:02:31;48.50;;;27.33;;
55053;SDS011;40954;45.668;18.980;2022-12-18T08:04:58;40.53;;;24.70;;
55053;SDS011;40954;45.668;18.980;2022-12-18T08:07:24;46.97;;;25.35;;
55053;SDS011;40954;45.668;18.980;2022-12-18T08:09:50;48.38;;;26.67;;
55053;SDS011;40954;45.668;18.980;2022-12-18T08:12:16;43.47;;;23.95;;
55053;SDS011;40954;45.668;18.980;2022-12-18T08:14:42;43.45;;;24.88;;
55053;SDS011;40954;45.668;18.980;2022-12-18T08:17:08;46.97;;;25.88;;
55053;SDS011;40954;45.668;18.980;2022-12-18T08:19:34;40.85;;;23.73;;
55053;SDS011;40954;45.668;18.980;2022-12-18T08:22:00;47.65;;;26.70;;
55053;SDS011;40954;45.668;18.980;2022-12-18T08:24:26;47.65;;;26.50;;
55053;SDS011;40954;45.668;18.980;2022-12-18T08:26:52;42.40;;;24.83;;
55053;SDS011;40954;45.668;18.980;2022-12-18T08:29:18;50.08;;;26.80;;
55053;SDS011;40954;45.668;18.980;2022-12-18T08:31:44;47.30;;;26.83;;
55053;SDS011;40954;45.668;18.980;2022-12-18T08:34:10;44.92;;;26.40;;
55053;SDS011;40954;45.668;18.980;2022-12-18T08:36:37;43.63;;;24.52;;
55053;SDS011;40954;45.668;18.980;2022-12-18T08:39:03;48.80;;;27.38;;
55053;SDS011;40954;45.668;18.980;2022-12-18T08:41:29;43.85;;;27.20;;
55053;SDS011;40954;45.668;18.980;2022-12-18T08:43:55;49.75;;;30.23;;
55053;SDS011;40954;45.668;18.980;2022-12-18T08:46:40;46.55;;;28.85;;
55053;SDS011;40954;45.668;18.980;2022-12-18T08:49:07;42.33;;;25.45;;
55053;SDS011;40954;45.668;18.980;2022-12-18T08:51:33;60.25;;;34.25;;
55053;SDS011;40954;45.668;18.980;2022-12-18T08:54:00;44.90;;;26.58;;
55053;SDS011;40954;45.668;18.980;2022-12-18T08:56:26;43.85;;;27.95;;
55053;SDS011;40954;45.668;18.980;2022-12-18T08:58:53;42.83;;;24.63;;
55053;SDS011;40954;45.668;18.980;2022-12-18T09:01:20;38.83;;;25.55;;
55053;SDS011;40954;45.668;18.980;2022-12-18T09:03:46;45.75;;;28.02;;
55053;SDS011;40954;45.668;18.980;2022-12-18T09:06:13;43.40;;;27.52;;
55053;SDS011;40954;45.668;18.980;2022-12-18T09:08:40;49.70;;;29.85;;
55053;SDS011;40954;45.668;18.980;2022-12-18T09:11:11;46.80;;;28.60;;
55053;SDS011;40954;45.668;18.980;2022-12-18T09:13:38;46.95;;;26.38;;
55053;SDS011;40954;45.668;18.980;2022-12-18T09:16:04;38.03;;;23.77;;
55053;SDS011;40954;45.668;18.980;2022-12-18T09:18:30;40.28;;;24.13;;
55053;SDS011;40954;45.668;18.980;2022-12-18T09:20:56;39.33;;;25.08;;
55053;SDS011;40954;45.668;18.980;2022-12-18T09:23:22;41.22;;;25.42;;
55053;SDS011;40954;45.668;18.980;2022-12-18T09:25:48;47.28;;;26.30;;
55053;SDS011;40954;45.668;18.980;2022-12-18T09:28:16;34.17;;;21.65;;
55053;SDS011;40954;45.668;18.980;2022-12-18T09:30:47;34.35;;;21.10;;
55053;SDS011;40954;45.668;18.980;2022-12-18T09:33:13;39.78;;;23.15;;
55053;SDS011;40954;45.668;18.980;2022-12-18T09:35:40;36.30;;;21.70;;
55053;SDS011;40954;45.668;18.980;2022-12-18T09:38:07;43.90;;;25.35;;
55053;SDS011;40954;45.668;18.980;2022-12-18T09:40:35;65.68;;;35.28;;
55053;SDS011;40954;45.668;18.980;2022-12-18T09:43:04;42.17;;;24.45;;
55053;SDS011;40954;45.668;18.980;2022-12-18T09:45:38;38.95;;;24.98;;
55053;SDS011;40954;45.668;18.980;2022-12-18T09:48:05;42.85;;;26.70;;
55053;SDS011;40954;45.668;18.980;2022-12-18T09:50:34;45.60;;;27.42;;
55053;SDS011;40954;45.668;18.980;2022-12-18T09:53:04;51.72;;;29.45;;
55053;SDS011;40954;45.668;18.980;2022-12-18T09:55:33;42.53;;;25.40;;
55053;SDS011;40954;45.668;18.980;2022-12-18T10:00:35;46.45;;;28.88;;
55053;SDS011;40954;45.668;18.980;2022-12-18T10:03:03;50.15;;;30.35;;
55053;SDS011;40954;45.668;18.980;2022-12-18T10:10:30;55.95;;;33.60;;
55053;SDS011;40954;45.668;18.980;2022-12-18T10:15:29;54.13;;;31.30;;
55053;SDS011;40954;45.668;18.980;2022-12-18T10:18:12;53.35;;;31.38;;
55053;SDS011;40954;45.668;18.980;2022-12-18T10:20:43;54.15;;;31.80;;
55053;SDS011;40954;45.668;18.980;2022-12-18T10:23:22;52.35;;;32.15;;
55053;SDS011;40954;45.668;18.980;2022-12-18T10:25:53;54.92;;;32.55;;
55053;SDS011;40954;45.668;18.980;2022-12-18T10:28:21;55.15;;;32.20;;
55053;SDS011;40954;45.668;18.980;2022-12-18T10:30:49;56.42;;;32.78;;
55053;SDS011;40954;45.668;18.980;2022-12-18T10:33:21;54.97;;;32.50;;
55053;SDS011;40954;45.668;18.980;2022-12-18T10:40:49;51.83;;;29.85;;
55053;SDS011;40954;45.668;18.980;2022-12-18T10:43:19;47.05;;;27.80;;
55053;SDS011;40954;45.668;18.980;2022-12-18T10:45:57;51.22;;;31.10;;
55053;SDS011;40954;45.668;18.980;2022-12-18T10:48:24;60.45;;;35.58;;
55053;SDS011;40954;45.668;18.980;2022-12-18T10:50:50;53.45;;;32.85;;
55053;SDS011;40954;45.668;18.980;2022-12-18T10:53:22;48.05;;;30.17;;
55053;SDS011;40954;45.668;18.980;2022-12-18T10:55:48;53.65;;;30.63;;
55053;SDS011;40954;45.668;18.980;2022-12-18T11:01:16;58.97;;;33.05;;
55053;SDS011;40954;45.668;18.980;2022-12-18T11:06:22;53.95;;;31.15;;
55053;SDS011;40954;45.668;18.980;2022-12-18T11:08:59;51.22;;;31.27;;
55053;SDS011;40954;45.668;18.980;2022-12-18T11:11:26;57.20;;;31.63;;
55053;SDS011;40954;45.668;18.980;2022-12-18T11:14:00;54.78;;;32.90;;
55053;SDS011;40954;45.668;18.980;2022-12-18T11:16:27;51.10;;;29.80;;
55053;SDS011;40954;45.668;18.980;2022-12-18T11:18:54;48.78;;;30.42;;
55053;SDS011;40954;45.668;18.980;2022-12-18T11:21:20;57.72;;;32.10;;
55053;SDS011;40954;45.668;18.980;2022-12-18T11:23:50;56.28;;;32.33;;
55053;SDS011;40954;45.668;18.980;2022-12-18T11:26:17;55.50;;;33.88;;
55053;SDS011;40954;45.668;18.980;2022-12-18T11:28:47;56.22;;;34.60;;
55053;SDS011;40954;45.668;18.980;2022-12-18T11:34:26;41.65;;;27.35;;
55053;SDS011;40954;45.668;18.980;2022-12-18T11:36:28;50.17;;;28.38;;
55053;SDS011;40954;45.668;18.980;2022-12-18T11:38:55;42.83;;;26.55;;
55053;SDS011;40954;45.668;18.980;2022-12-18T11:44:10;58.63;;;35.00;;
55053;SDS011;40954;45.668;18.980;2022-12-18T11:46:46;43.13;;;27.13;;
55053;SDS011;40954;45.668;18.980;2022-12-18T11:49:19;44.90;;;26.52;;
55053;SDS011;40954;45.668;18.980;2022-12-18T11:54:15;47.40;;;31.10;;
55053;SDS011;40954;45.668;18.980;2022-12-18T12:06:58;58.58;;;35.80;;
55053;SDS011;40954;45.668;18.980;2022-12-18T12:14:37;59.88;;;37.35;;
55053;SDS011;40954;45.668;18.980;2022-12-18T12:22:00;49.05;;;30.23;;
55053;SDS011;40954;45.668;18.980;2022-12-18T12:34:44;49.88;;;29.90;;
55053;SDS011;40954;45.668;18.980;2022-12-18T12:37:38;53.00;;;31.17;;
55053;SDS011;40954;45.668;18.980;2022-12-18T12:42:35;52.83;;;31.83;;
55053;SDS011;40954;45.668;18.980;2022-12-18T12:46:08;56.83;;;32.80;;
55053;SDS011;40954;45.668;18.980;2022-12-18T12:48:16;51.20;;;30.88;;
55053;SDS011;40954;45.668;18.980;2022-12-18T12:50:43;55.60;;;31.08;;
55053;SDS011;40954;45.668;18.980;2022-12-18T12:53:11;46.78;;;30.20;;
55053;SDS011;40954;45.668;18.980;2022-12-18T12:55:40;51.63;;;29.77;;
55053;SDS011;40954;45.668;18.980;2022-12-18T12:58:14;54.40;;;31.27;;
55053;SDS011;40954;45.668;18.980;2022-12-18T13:05:50;51.92;;;32.13;;
55053;SDS011;40954;45.668;18.980;2022-12-18T13:09:01;49.17;;;30.27;;
55053;SDS011;40954;45.668;18.980;2022-12-18T13:11:11;44.45;;;25.98;;
55053;SDS011;40954;45.668;18.980;2022-12-18T13:14:20;47.42;;;28.27;;
55053;SDS011;40954;45.668;18.980;2022-12-18T13:16:46;84.07;;;44.67;;
55053;SDS011;40954;45.668;18.980;2022-12-18T13:19:21;52.63;;;31.13;;
55053;SDS011;40954;45.668;18.980;2022-12-18T13:21:52;45.28;;;25.45;;
55053;SDS011;40954;45.668;18.980;2022-12-18T13:24:25;49.40;;;29.73;;
55053;SDS011;40954;45.668;18.980;2022-12-18T13:26:52;59.80;;;36.28;;
55053;SDS011;40954;45.668;18.980;2022-12-18T13:32:15;50.30;;;30.10;;
55053;SDS011;40954;45.668;18.980;2022-12-18T13:34:48;50.07;;;31.47;;
55053;SDS011;40954;45.668;18.980;2022-12-18T13:39:57;46.78;;;28.70;;
55053;SDS011;40954;45.668;18.980;2022-12-18T13:47:54;53.47;;;31.13;;
55053;SDS011;40954;45.668;18.980;2022-12-18T13:50:24;46.60;;;27.65;;
55053;SDS011;40954;45.668;18.980;2022-12-18T13:52:50;70.30;;;39.88;;
55053;SDS011;40954;45.668;18.980;2022-12-18T13:55:18;92.20;;;51.95;;
55053;SDS011;40954;45.668;18.980;2022-12-18T13:57:44;83.47;;;47.47;;
55053;SDS011;40954;45.668;18.980;2022-12-18T14:02:46;60.78;;;36.50;;
55053;SDS011;40954;45.668;18.980;2022-12-18T14:05:22;47.55;;;29.25;;
55053;SDS011;40954;45.668;18.980;2022-12-18T14:07:48;57.15;;;35.00;;
55053;SDS011;40954;45.668;18.980;2022-12-18T14:10:15;55.55;;;34.40;;
55053;SDS011;40954;45.668;18.980;2022-12-18T14:12:44;94.65;;;55.92;;
55053;SDS011;40954;45.668;18.980;2022-12-18T14:20:26;124.38;;;70.35;;
55053;SDS011;40954;45.668;18.980;2022-12-18T14:22:52;79.47;;;47.40;;
55053;SDS011;40954;45.668;18.980;2022-12-18T14:25:23;71.30;;;37.97;;
55053;SDS011;40954;45.668;18.980;2022-12-18T14:27:50;91.88;;;47.75;;
55053;SDS011;40954;45.668;18.980;2022-12-18T14:33:00;123.65;;;62.72;;
55053;SDS011;40954;45.668;18.980;2022-12-18T14:35:26;95.32;;;50.20;;
55053;SDS011;40954;45.668;18.980;2022-12-18T14:37:53;61.10;;;34.08;;
55053;SDS011;40954;45.668;18.980;2022-12-18T14:40:19;70.32;;;38.05;;
55053;SDS011;40954;45.668;18.980;2022-12-18T14:42:45;94.97;;;51.22;;
55053;SDS011;40954;45.668;18.980;2022-12-18T14:47:56;68.10;;;36.92;;
55053;SDS011;40954;45.668;18.980;2022-12-18T14:50:22;55.70;;;31.48;;
55053;SDS011;40954;45.668;18.980;2022-12-18T14:52:48;60.47;;;35.80;;
55053;SDS011;40954;45.668;18.980;2022-12-18T14:55:15;99.85;;;55.47;;
55053;SDS011;40954;45.668;18.980;2022-12-18T14:57:42;82.22;;;45.38;;
55053;SDS011;40954;45.668;18.980;2022-12-18T15:00:16;57.95;;;33.50;;
55053;SDS011;40954;45.668;18.980;2022-12-18T15:02:43;50.20;;;28.73;;
55053;SDS011;40954;45.668;18.980;2022-12-18T15:07:46;62.80;;;36.97;;
55053;SDS011;40954;45.668;18.980;2022-12-18T15:10:26;57.25;;;34.75;;
55053;SDS011;40954;45.668;18.980;2022-12-18T15:20:31;53.60;;;31.55;;
55053;SDS011;40954;45.668;18.980;2022-12-18T15:22:58;50.28;;;31.38;;
55053;SDS011;40954;45.668;18.980;2022-12-18T15:25:31;59.42;;;36.58;;
55053;SDS011;40954;45.668;18.980;2022-12-18T15:27:58;55.75;;;32.60;;
55053;SDS011;40954;45.668;18.980;2022-12-18T15:30:25;50.30;;;30.42;;
55053;SDS011;40954;45.668;18.980;2022-12-18T15:32:52;54.50;;;34.08;;
55053;SDS011;40954;45.668;18.980;2022-12-18T15:35:23;56.40;;;33.05;;
55053;SDS011;40954;45.668;18.980;2022-12-18T15:37:50;55.92;;;31.98;;
55053;SDS011;40954;45.668;18.980;2022-12-18T15:40:21;65.20;;;38.22;;
55053;SDS011;40954;45.668;18.980;2022-12-18T15:42:47;67.53;;;39.30;;
55053;SDS011;40954;45.668;18.980;2022-12-18T15:45:32;81.32;;;45.13;;
55053;SDS011;40954;45.668;18.980;2022-12-18T15:47:59;91.50;;;50.95;;
55053;SDS011;40954;45.668;18.980;2022-12-18T15:50:25;93.25;;;50.22;;
55053;SDS011;40954;45.668;18.980;2022-12-18T15:52:52;66.55;;;38.60;;
55053;SDS011;40954;45.668;18.980;2022-12-18T15:55:21;54.75;;;34.08;;
55053;SDS011;40954;45.668;18.980;2022-12-18T15:58:06;87.03;;;46.35;;
55053;SDS011;40954;45.668;18.980;2022-12-18T16:00:33;89.03;;;49.88;;
55053;SDS011;40954;45.668;18.980;2022-12-18T16:03:00;65.35;;;39.13;;
55053;SDS011;40954;45.668;18.980;2022-12-18T16:05:26;64.80;;;38.30;;
55053;SDS011;40954;45.668;18.980;2022-12-18T16:07:52;63.88;;;37.63;;
55053;SDS011;40954;45.668;18.980;2022-12-18T16:10:19;66.60;;;39.28;;